Airfield :
LOGIN :

Register | Disclaimer

   EN    FR    IT 

 










Legend :    VFR   Marginal VFR   IFR   Intensive IFR   Very Intensive IFR
Visi :
Ceiling :
>= 8 km
>= 3000ft
5 to 8 km
1000 to 3000 ft
1500m to 5 km
500 to 1000 ft
800 to 1500m
200 to 500 ft
< 800m
< 200 ft
Symbols :   Thunderstorms  Fog  Heavy snow  Heavy precipitations  Wind > 20 kt
SIGMETs :     Misc.  Thunderstorms  Icing  Turbulence  Mountain Waves  Volcanic Ashes






- Airport Elevation : 375 ft
- IATA code : MST


EHBK - Maastricht Aachen

CURRENT METAR :
  • 180055Z AUTO 34010KT 300V020 5000 +DZ FEW004 SCT006 BKN007 04/03 Q1007

EXPIRED METARs :
  • 180025Z AUTO 34009KT 310V010 4500 +DZ FEW004 BKN007 OVC008 04/03 Q1007
  • 172355Z AUTO 34008KT 290V040 5000 -SHRA FEW005 SCT007 BKN009 04/03 Q1007
  • 172325Z AUTO 34006KT 300V010 3900 -SHRA FEW004 SCT009 OVC015 04/03 Q1007
  • 172255Z AUTO 33006KT 300V010 3800 -SHRA FEW002 SCT009 FEW015CB OVC016 04/03 Q1008
  • 172225Z AUTO 35009KT 310V040 4200 -RA FEW006 SCT010 BKN013 04/03 Q1008

TAF COR TAF EHBK
Valid from the 18 at 00:00 until the 19 at 06:00 UTC


172335Z 1800/1906 36008KT 4000 RA BR BKN007
BECMG 1800/1803 BKN003
PROB40
TEMPO 1800/1820 2000 DZ
BECMG 1803/1806 33010KT
PROB30 1804/1810 0500 FG BKN000
BECMG 1809/1812 30008KT
BECMG 1820/1823 27010KT 9999 NSW BKN020
PROB30
TEMPO 1823/1906 7000 -SHRA -RA BKN012 SCT018TCU
BECMG 1903/1906 24007KT



MET'MAP, your aeronautical weather chart ! - Copyright ORBIFLY December 2007 - Disclaimer

ORBIFLY MET'MAP TEAM :

Programming & Development : Alexandra Zaïnal
Concept & Development : Baudouin d'Aumeries
Co-Development & Prog : Marc-Olivier Méhu
Technical & hardware support : Manuel Goepfert

Contact : metmap@orbifly.com




SOURCES & CREDITS :

   NOAA